Time;durP1;ratioP1;P1;durP2;ratioP2;P2;SDS_P1;SDS_P2;PMS_P1;PMS_P2;Temp;Humidity;BMP_temperature;BMP_pressure;BME280_temperature;BME280_humidity;BME280_pressure;Samples;Min_cycle;Max_cycle;Signal;HPM_P1;HPM_P2
2023/03/03 00:00:06;;;;;;;96.47;45.15;;;0.50;99.90;;;;;;5101681;28;20408;-61
2023/03/03 00:02:32;;;;;;;96.57;46.05;;;0.40;99.90;;;;;;5094940;28;20444;-60
2023/03/03 00:05:00;;;;;;;108.25;48.80;;;0.50;99.90;;;;;;5097986;28;20416;-61
2023/03/03 00:07:26;;;;;;;100.70;46.80;;;0.40;99.90;;;;;;5102795;28;20409;-60
2023/03/03 00:09:53;;;;;;;93.50;42.35;;;0.50;99.90;;;;;;5099181;28;20425;-61
2023/03/03 00:12:24;;;;;;;96.93;39.28;;;0.50;99.90;;;;;;5099756;28;20486;-61
2023/03/03 00:14:51;;;;;;;108.32;46.90;;;0.40;99.90;;;;;;5103750;28;20508;-59
2023/03/03 00:17:22;;;;;;;104.20;45.63;;;0.40;99.90;;;;;;5103447;28;20887;-61
2023/03/03 00:19:50;;;;;;;101.00;44.42;;;0.50;99.90;;;;;;5100364;28;20410;-59
2023/03/03 00:22:27;;;;;;;104.70;45.20;;;0.40;99.90;;;;;;5112834;28;20449;-57
2023/03/03 00:24:54;;;;;;;97.40;45.45;;;0.40;99.90;;;;;;5100929;28;20475;-61
2023/03/03 00:27:29;;;;;;;109.55;49.88;;;0.40;99.90;;;;;;5108604;28;20412;-60
2023/03/03 00:29:57;;;;;;;109.97;46.58;;;0.40;99.90;;;;;;5106018;28;20426;-60
2023/03/03 00:32:26;;;;;;;103.18;47.95;;;0.50;99.90;;;;;;5107668;28;20457;-61
2023/03/03 00:34:55;;;;;;;94.97;42.45;;;0.50;99.90;;;;;;5104815;28;20412;-61
2023/03/03 00:37:33;;;;;;;95.07;41.50;;;0.40;99.90;;;;;;5106137;28;20419;-60
2023/03/03 00:40:16;;;;;;;112.40;48.15;;;0.40;99.90;;;;;;5101746;28;20780;-61
2023/03/03 00:42:48;;;;;;;86.57;39.83;;;0.50;99.90;;;;;;5099477;28;20413;-61
2023/03/03 00:45:26;;;;;;;85.80;39.35;;;0.40;99.90;;;;;;5100718;28;20412;-61
2023/03/03 00:47:53;;;;;;;93.68;43.45;;;0.40;99.90;;;;;;5095695;28;21149;-59
2023/03/03 00:50:31;;;;;;;92.60;44.28;;;0.40;99.90;;;;;;5106605;28;20428;-61
2023/03/03 00:53:04;;;;;;;83.13;40.10;;;0.40;99.90;;;;;;5100356;28;20406;-61
2023/03/03 00:55:32;;;;;;;79.07;39.30;;;0.40;99.90;;;;;;5109709;28;20396;-61
2023/03/03 00:58:00;;;;;;;82.57;40.20;;;0.40;99.90;;;;;;5101473;28;20411;-61
2023/03/03 01:00:27;;;;;;;86.38;41.75;;;0.50;99.90;;;;;;5105199;28;20457;-61
2023/03/03 01:02:53;;;;;;;78.43;35.80;;;0.50;99.90;;;;;;5103636;28;20406;-61
2023/03/03 01:05:21;;;;;;;81.78;41.10;;;0.40;99.90;;;;;;5106802;28;20465;-62
2023/03/03 01:07:48;;;;;;;86.18;42.05;;;0.50;99.90;;;;;;5095400;28;20413;-61
2023/03/03 01:10:15;;;;;;;82.73;40.13;;;0.50;99.90;;;;;;5102487;28;20449;-61
2023/03/03 01:12:41;;;;;;;82.15;40.08;;;0.60;99.90;;;;;;5102179;28;20462;-59
2023/03/03 01:15:12;;;;;;;93.28;42.08;;;0.60;99.90;;;;;;5101349;28;20414;-61
2023/03/03 01:17:40;;;;;;;96.15;43.35;;;0.60;99.90;;;;;;5104849;28;20875;-61
2023/03/03 01:20:07;;;;;;;96.30;43.58;;;0.60;99.90;;;;;;5101868;28;20414;-61
2023/03/03 01:22:34;;;;;;;100.75;44.30;;;0.60;99.90;;;;;;5104198;28;20886;-61
2023/03/03 01:25:02;;;;;;;96.38;41.78;;;0.50;99.90;;;;;;5100125;28;20409;-60
2023/03/03 01:27:29;;;;;;;96.85;44.00;;;0.60;99.90;;;;;;5100269;28;20473;-61
2023/03/03 01:29:56;;;;;;;89.65;39.58;;;0.50;99.90;;;;;;5101117;28;20831;-61
2023/03/03 01:32:24;;;;;;;99.47;43.70;;;0.40;99.90;;;;;;5102951;28;20405;-61
2023/03/03 01:34:51;;;;;;;95.07;41.63;;;0.40;99.90;;;;;;5105683;28;20424;-59
2023/03/03 01:37:17;;;;;;;99.32;40.40;;;0.40;99.90;;;;;;5102393;28;20409;-61
2023/03/03 01:39:48;;;;;;;84.07;36.90;;;0.40;99.90;;;;;;5101582;28;20860;-60
2023/03/03 01:42:15;;;;;;;115.32;47.90;;;0.40;99.90;;;;;;5101016;28;20400;-61
2023/03/03 01:44:42;;;;;;;115.15;49.95;;;0.40;99.90;;;;;;5107586;28;21013;-61
2023/03/03 01:47:11;;;;;;;96.60;39.78;;;0.50;99.90;;;;;;5101682;28;20414;-60
2023/03/03 01:49:44;;;;;;;98.13;42.17;;;0.40;99.90;;;;;;5103950;28;20499;-60
2023/03/03 01:52:19;;;;;;;104.78;44.55;;;0.40;99.90;;;;;;5101924;28;20471;-60
2023/03/03 01:54:51;;;;;;;98.22;42.35;;;0.40;99.90;;;;;;5103619;28;20852;-61
2023/03/03 01:57:24;;;;;;;114.65;48.08;;;0.30;99.90;;;;;;5104235;28;20465;-60
2023/03/03 01:59:53;;;;;;;109.07;45.33;;;0.30;99.90;;;;;;5105115;28;20417;-56
2023/03/03 02:02:20;;;;;;;104.10;45.83;;;0.20;99.90;;;;;;5105313;28;20409;-60
2023/03/03 02:04:49;;;;;;;112.88;46.67;;;0.30;99.90;;;;;;5101123;28;20414;-61
2023/03/03 02:07:18;;;;;;;113.32;46.05;;;0.30;99.90;;;;;;5096221;28;20876;-59
2023/03/03 02:09:52;;;;;;;140.50;56.67;;;0.30;99.90;;;;;;5103964;28;20886;-60
2023/03/03 02:12:23;;;;;;;128.15;52.50;;;0.30;99.90;;;;;;5102498;28;20467;-59
2023/03/03 02:14:50;;;;;;;130.13;53.50;;;0.30;99.90;;;;;;5104046;28;20412;-61
2023/03/03 02:17:16;;;;;;;124.43;52.75;;;0.40;99.90;;;;;;5099837;28;20406;-61
2023/03/03 02:19:51;;;;;;;127.32;52.97;;;0.40;99.90;;;;;;5103702;28;20408;-60
2023/03/03 02:22:23;;;;;;;114.13;51.90;;;0.60;99.90;;;;;;5103000;28;20758;-61
2023/03/03 02:24:53;;;;;;;108.72;49.60;;;0.70;99.90;;;;;;5097807;28;20414;-61
2023/03/03 02:27:21;;;;;;;111.07;49.92;;;0.80;99.90;;;;;;5099835;28;20410;-61
2023/03/03 02:29:47;;;;;;;111.18;48.42;;;0.60;99.90;;;;;;5103351;28;20415;-60
2023/03/03 02:32:14;;;;;;;119.40;51.60;;;0.60;99.90;;;;;;5102326;28;20830;-61
2023/03/03 02:34:47;;;;;;;117.45;49.55;;;0.50;99.90;;;;;;5100819;28;20753;-59
2023/03/03 02:37:13;;;;;;;106.60;47.55;;;0.50;99.90;;;;;;5106087;28;20956;-61
2023/03/03 02:39:40;;;;;;;108.40;46.80;;;0.50;99.90;;;;;;5104483;28;20442;-61
2023/03/03 02:42:12;;;;;;;111.70;47.37;;;0.40;99.90;;;;;;5101729;28;20505;-61
2023/03/03 02:44:40;;;;;;;116.05;48.83;;;0.40;99.90;;;;;;5104343;28;20472;-60
2023/03/03 02:47:07;;;;;;;105.38;42.15;;;0.30;99.90;;;;;;5101255;28;20406;-61
2023/03/03 02:49:35;;;;;;;101.05;41.53;;;0.30;99.90;;;;;;5104567;28;20412;-60
2023/03/03 02:52:05;;;;;;;120.30;48.28;;;0.30;99.90;;;;;;5095074;28;20433;-59
2023/03/03 02:54:33;;;;;;;135.23;54.83;;;0.30;99.90;;;;;;5104745;28;20411;-61
2023/03/03 02:57:00;;;;;;;117.45;43.38;;;0.40;99.90;;;;;;5095458;28;20398;-61
2023/03/03 02:59:27;;;;;;;145.80;54.63;;;0.40;99.90;;;;;;5102123;28;20477;-61
2023/03/03 03:01:55;;;;;;;143.30;54.20;;;0.30;99.90;;;;;;5100703;28;20474;-60
2023/03/03 03:04:23;;;;;;;158.30;55.97;;;0.30;99.90;;;;;;5104962;28;20475;-60
2023/03/03 03:06:50;;;;;;;164.40;59.92;;;0.20;99.90;;;;;;5104769;28;20785;-60
2023/03/03 03:09:19;;;;;;;153.30;55.67;;;0.30;99.90;;;;;;5103511;28;20487;-61
2023/03/03 03:11:46;;;;;;;170.93;60.03;;;0.20;99.90;;;;;;5102767;28;20457;-61
2023/03/03 03:14:14;;;;;;;142.43;51.40;;;0.30;99.90;;;;;;5100250;28;20410;-61
2023/03/03 03:16:41;;;;;;;96.57;34.63;;;0.10;99.90;;;;;;5100981;28;20504;-61
2023/03/03 03:19:09;;;;;;;162.73;54.13;;;0.10;99.90;;;;;;5102972;28;20415;-61
2023/03/03 03:21:36;;;;;;;165.40;56.90;;;0.10;99.90;;;;;;5101297;28;20414;-61
2023/03/03 03:24:03;;;;;;;169.65;56.75;;;0.20;99.90;;;;;;5103444;28;20817;-61
2023/03/03 03:26:29;;;;;;;153.52;52.13;;;0.20;99.90;;;;;;5102191;28;20475;-61
2023/03/03 03:28:56;;;;;;;162.85;53.30;;;0.10;99.90;;;;;;5102413;28;20414;-60
2023/03/03 03:31:23;;;;;;;130.98;43.53;;;0.10;99.90;;;;;;5106739;28;20447;-61
2023/03/03 03:33:50;;;;;;;192.30;59.05;;;0.10;99.90;;;;;;5114732;28;20420;-61
2023/03/03 03:36:18;;;;;;;210.48;65.03;;;0.20;99.90;;;;;;5110671;28;20762;-61
2023/03/03 03:38:45;;;;;;;181.07;59.88;;;0.10;99.90;;;;;;5114685;28;20454;-59
2023/03/03 03:41:12;;;;;;;216.53;67.83;;;0.20;99.90;;;;;;5105346;28;20408;-61
2023/03/03 03:43:40;;;;;;;214.02;65.63;;;0.20;99.90;;;;;;5099779;28;20453;-60
2023/03/03 03:46:06;;;;;;;205.70;66.25;;;0.30;99.90;;;;;;5099788;28;20483;-62
2023/03/03 03:48:33;;;;;;;210.17;64.30;;;0.30;99.90;;;;;;5095713;28;20864;-60
2023/03/03 03:51:00;;;;;;;149.05;46.58;;;0.30;99.90;;;;;;5096615;28;20417;-61
2023/03/03 03:53:28;;;;;;;176.98;54.65;;;0.30;99.90;;;;;;5096367;28;20471;-61
2023/03/03 03:55:54;;;;;;;172.50;53.15;;;0.30;99.90;;;;;;5094859;28;20403;-61
2023/03/03 03:58:21;;;;;;;179.95;56.70;;;0.20;99.90;;;;;;5094772;28;20409;-61
2023/03/03 04:00:48;;;;;;;180.40;56.65;;;0.20;99.90;;;;;;5102402;28;20418;-60
2023/03/03 04:03:15;;;;;;;163.00;51.28;;;0.20;99.90;;;;;;5100731;28;20883;-58
2023/03/03 04:05:42;;;;;;;99.05;32.08;;;0.20;99.90;;;;;;5098225;28;20471;-61
2023/03/03 04:08:09;;;;;;;164.37;52.87;;;0.20;99.90;;;;;;5095689;28;20416;-61
2023/03/03 04:10:37;;;;;;;181.50;55.70;;;0.20;99.90;;;;;;5100066;28;20467;-61
2023/03/03 04:13:04;;;;;;;182.95;54.88;;;0.20;99.90;;;;;;5101755;28;20408;-61
2023/03/03 04:15:31;;;;;;;176.60;53.20;;;0.10;99.90;;;;;;5100751;28;20405;-61
2023/03/03 04:17:58;;;;;;;150.43;47.92;;;0.30;99.90;;;;;;5098968;28;20408;-61
2023/03/03 04:20:24;;;;;;;170.55;52.80;;;0.10;99.90;;;;;;5097935;28;20814;-61
2023/03/03 04:22:51;;;;;;;152.85;50.03;;;0.20;99.90;;;;;;5098113;28;20851;-61
2023/03/03 04:25:18;;;;;;;148.75;45.25;;;0.20;99.90;;;;;;5101951;28;20414;-61
2023/03/03 04:27:46;;;;;;;146.82;47.78;;;0.20;99.90;;;;;;5100290;28;20414;-61
2023/03/03 04:30:14;;;;;;;144.38;47.35;;;0.10;99.90;;;;;;5107074;28;20457;-61
2023/03/03 04:32:42;;;;;;;126.32;40.22;;;0.10;99.90;;;;;;5098895;28;20913;-61
2023/03/03 04:35:10;;;;;;;136.60;43.57;;;0.00;99.90;;;;;;5102904;28;20411;-60
2023/03/03 04:37:37;;;;;;;134.40;43.97;;;0.00;99.90;;;;;;5097906;28;20403;-61
2023/03/03 04:40:06;;;;;;;93.90;30.08;;;0.00;99.90;;;;;;5097848;28;20422;-61
2023/03/03 04:42:33;;;;;;;115.97;39.58;;;-0.10;99.90;;;;;;5101478;28;20407;-61
2023/03/03 04:45:01;;;;;;;133.23;43.15;;;-0.10;99.90;;;;;;5097996;28;20482;-60
2023/03/03 04:47:28;;;;;;;141.23;44.10;;;-0.10;99.90;;;;;;5102128;28;20434;-61
2023/03/03 04:49:55;;;;;;;145.05;44.17;;;-0.10;99.90;;;;;;5100528;28;20400;-61
2023/03/03 04:52:21;;;;;;;145.37;45.50;;;-0.10;99.90;;;;;;5102828;28;20526;-61
2023/03/03 04:54:48;;;;;;;137.32;43.75;;;0.00;99.90;;;;;;5100144;28;20870;-61
2023/03/03 04:57:15;;;;;;;106.43;33.60;;;0.10;99.90;;;;;;5099574;28;20825;-57
2023/03/03 04:59:41;;;;;;;132.48;40.42;;;-0.10;99.90;;;;;;5101820;28;20416;-60
2023/03/03 05:02:09;;;;;;;122.18;38.05;;;-0.20;99.90;;;;;;5099053;28;20406;-60
2023/03/03 05:04:36;;;;;;;125.40;39.83;;;-0.20;99.90;;;;;;5102734;28;20469;-59
2023/03/03 05:07:03;;;;;;;137.43;40.78;;;-0.20;99.90;;;;;;5102518;28;20406;-61
2023/03/03 05:09:30;;;;;;;140.85;44.60;;;-0.20;99.90;;;;;;5098724;28;20407;-61
2023/03/03 05:11:56;;;;;;;128.80;39.95;;;-0.30;99.90;;;;;;5091488;28;20429;-61
2023/03/03 05:14:23;;;;;;;126.90;39.33;;;-0.30;99.90;;;;;;5100496;28;20410;-62
2023/03/03 05:16:50;;;;;;;106.32;34.15;;;-0.20;99.90;;;;;;5103450;28;20416;-61
2023/03/03 05:19:18;;;;;;;130.13;41.45;;;-0.30;99.90;;;;;;5101222;28;20427;-60
2023/03/03 05:21:45;;;;;;;123.13;38.92;;;-0.30;99.90;;;;;;5101988;28;20406;-61
2023/03/03 05:24:13;;;;;;;132.75;39.30;;;-0.20;99.90;;;;;;5108791;28;20946;-61
2023/03/03 05:26:41;;;;;;;130.43;41.63;;;-0.20;99.90;;;;;;5103768;28;20481;-61
2023/03/03 05:29:08;;;;;;;156.13;45.65;;;-0.20;99.90;;;;;;5104464;28;20484;-60
2023/03/03 05:31:35;;;;;;;152.18;44.83;;;-0.10;99.90;;;;;;5104867;28;20469;-60
2023/03/03 05:34:02;;;;;;;147.02;42.33;;;-0.20;99.90;;;;;;5104136;28;20469;-60
2023/03/03 05:36:30;;;;;;;145.32;44.03;;;-0.10;99.90;;;;;;5101822;28;20410;-61
2023/03/03 05:38:57;;;;;;;160.50;44.40;;;-0.10;99.90;;;;;;5102722;28;20414;-62
2023/03/03 05:41:24;;;;;;;128.10;39.40;;;-0.10;99.90;;;;;;5104690;28;20897;-63
2023/03/03 05:43:51;;;;;;;140.95;42.95;;;-0.10;99.90;;;;;;5103825;28;20461;-62
2023/03/03 05:46:17;;;;;;;153.20;44.83;;;-0.20;99.90;;;;;;5103976;28;20408;-63
2023/03/03 05:48:44;;;;;;;144.27;42.67;;;-0.20;99.90;;;;;;5097788;28;20893;-63
2023/03/03 05:51:11;;;;;;;144.98;43.67;;;-0.10;99.90;;;;;;5104480;28;20478;-62
2023/03/03 05:53:39;;;;;;;136.73;39.67;;;-0.20;99.90;;;;;;5106894;28;20774;-63
2023/03/03 05:56:06;;;;;;;148.30;43.42;;;-0.20;99.90;;;;;;5097289;28;20839;-64
2023/03/03 05:58:33;;;;;;;138.43;43.58;;;-0.20;99.90;;;;;;5099825;28;20490;-63
2023/03/03 06:01:00;;;;;;;146.63;44.63;;;-0.20;99.90;;;;;;5106087;28;20809;-64
2023/03/03 06:03:27;;;;;;;129.98;37.85;;;-0.10;99.90;;;;;;5099169;28;20414;-64
2023/03/03 06:05:53;;;;;;;142.18;43.17;;;-0.10;99.90;;;;;;5103972;28;20408;-64
2023/03/03 06:08:20;;;;;;;146.63;43.10;;;-0.20;99.90;;;;;;5102270;28;20967;-64
2023/03/03 06:10:48;;;;;;;137.70;41.13;;;-0.10;99.90;;;;;;5105270;28;20433;-64
2023/03/03 06:13:15;;;;;;;140.82;41.92;;;-0.20;99.90;;;;;;5098362;28;20433;-63
2023/03/03 06:15:41;;;;;;;136.73;41.88;;;-0.20;99.90;;;;;;5101568;28;20479;-63
2023/03/03 06:18:08;;;;;;;138.50;42.20;;;-0.10;99.90;;;;;;5104706;28;20421;-63
2023/03/03 06:20:35;;;;;;;130.77;40.03;;;-0.20;99.90;;;;;;5102349;28;20884;-63
2023/03/03 06:23:02;;;;;;;145.98;42.88;;;-0.20;99.90;;;;;;5104160;28;20875;-63
2023/03/03 06:25:29;;;;;;;168.30;46.72;;;-0.10;99.90;;;;;;5103093;28;20477;-63
2023/03/03 06:27:57;;;;;;;153.23;45.30;;;-0.20;99.90;;;;;;5099908;28;20822;-63
2023/03/03 06:30:25;;;;;;;159.05;44.85;;;-0.20;99.90;;;;;;5096880;28;20409;-63
2023/03/03 06:32:52;;;;;;;114.68;35.58;;;-0.10;99.90;;;;;;5106057;28;20465;-63
2023/03/03 06:35:19;;;;;;;121.20;37.47;;;-0.10;99.90;;;;;;5100211;28;20410;-64
2023/03/03 06:37:45;;;;;;;137.82;42.38;;;-0.20;99.90;;;;;;5102883;28;20414;-63
2023/03/03 06:40:13;;;;;;;130.98;39.83;;;-0.20;99.90;;;;;;5104923;28;20408;-64
2023/03/03 06:42:40;;;;;;;124.30;41.13;;;-0.10;99.90;;;;;;5115533;28;20477;-63
2023/03/03 06:45:09;;;;;;;133.50;42.55;;;-0.20;99.90;;;;;;5112533;28;20469;-64
2023/03/03 06:47:35;;;;;;;134.97;42.17;;;-0.20;99.90;;;;;;5110285;28;20466;-64
2023/03/03 06:50:02;;;;;;;135.15;41.58;;;-0.20;99.90;;;;;;5111088;28;20461;-63
2023/03/03 06:52:29;;;;;;;131.88;39.90;;;-0.20;99.90;;;;;;5098345;28;20429;-63
2023/03/03 06:54:58;;;;;;;137.95;44.80;;;-0.20;99.90;;;;;;5100931;28;20412;-63
2023/03/03 06:57:27;;;;;;;135.13;44.03;;;-0.20;99.90;;;;;;5102800;28;20457;-63
2023/03/03 06:59:57;;;;;;;121.68;42.58;;;0.00;99.90;;;;;;5097232;28;20410;-64
2023/03/03 07:02:25;;;;;;;115.13;41.50;;;0.00;99.90;;;;;;5104288;28;20407;-64
2023/03/03 07:04:55;;;;;;;119.47;41.85;;;0.10;99.90;;;;;;5096980;28;20456;-63
2023/03/03 07:07:24;;;;;;;118.20;41.33;;;0.10;99.90;;;;;;5100881;28;20492;-64
2023/03/03 07:09:54;;;;;;;115.28;40.08;;;0.10;99.90;;;;;;5100414;28;20410;-63
2023/03/03 07:12:22;;;;;;;126.85;42.97;;;0.10;99.90;;;;;;5100708;28;20434;-63
2023/03/03 07:14:54;;;;;;;135.32;45.95;;;0.20;99.90;;;;;;5102206;28;20879;-63
2023/03/03 07:17:24;;;;;;;130.27;41.97;;;0.10;99.90;;;;;;5098441;28;20420;-64
2023/03/03 07:19:52;;;;;;;127.67;45.13;;;0.10;99.90;;;;;;5096530;28;20437;-64
2023/03/03 07:22:21;;;;;;;121.05;40.47;;;0.10;99.90;;;;;;5099851;28;20400;-63
2023/03/03 07:24:50;;;;;;;134.85;46.08;;;0.00;99.90;;;;;;5099713;28;20445;-64
2023/03/03 07:27:22;;;;;;;132.40;44.78;;;0.00;99.90;;;;;;5100451;28;20830;-63
2023/03/03 07:29:51;;;;;;;130.93;42.17;;;0.00;99.90;;;;;;5096377;28;20430;-64
2023/03/03 07:32:35;;;;;;;124.80;40.30;;;0.00;99.90;;;;;;5099913;28;20471;-63
2023/03/03 07:35:18;;;;;;;132.02;43.47;;;-0.10;99.90;;;;;;5100215;28;20414;-63
2023/03/03 07:37:44;;;;;;;114.30;38.58;;;0.00;99.90;;;;;;5103362;28;20894;-63
2023/03/03 07:40:30;;;;;;;122.27;40.47;;;0.00;99.90;;;;;;5098383;28;20500;-63
2023/03/03 07:42:57;;;;;;;114.35;38.65;;;0.00;99.90;;;;;;5099718;28;20405;-63
2023/03/03 07:45:27;;;;;;;109.57;36.55;;;-0.10;99.90;;;;;;5100383;28;20421;-61
2023/03/03 07:48:01;;;;;;;100.85;35.88;;;-0.10;99.90;;;;;;5099204;28;20479;-63
2023/03/03 07:50:29;;;;;;;116.32;41.78;;;-0.10;99.90;;;;;;5103443;28;20466;-63
2023/03/03 07:52:58;;;;;;;110.13;38.30;;;-0.10;99.90;;;;;;5097576;28;20481;-62
2023/03/03 07:55:33;;;;;;;113.60;39.78;;;0.00;99.90;;;;;;5099797;28;20421;-62
2023/03/03 07:58:21;;;;;;;122.13;43.35;;;-0.10;99.90;;;;;;5097340;28;20496;-63
2023/03/03 08:01:29;;;;;;;118.88;41.30;;;-0.10;99.90;;;;;;5098760;28;20461;-62
2023/03/03 08:03:56;;;;;;;91.25;33.83;;;-0.10;99.90;;;;;;5097644;28;20406;-62
2023/03/03 08:06:37;;;;;;;101.70;39.00;;;-0.10;99.90;;;;;;5099092;28;20402;-63
2023/03/03 08:09:34;;;;;;;112.88;41.08;;;0.00;99.90;;;;;;5098989;28;20413;-63
2023/03/03 08:12:18;;;;;;;128.98;45.83;;;0.10;99.90;;;;;;5088644;28;20427;-63
2023/03/03 08:14:45;;;;;;;115.57;43.72;;;0.00;99.90;;;;;;5099311;28;20785;-62
2023/03/03 08:17:17;;;;;;;118.25;42.03;;;0.20;99.90;;;;;;5101898;28;20894;-64
2023/03/03 08:19:44;;;;;;;124.18;43.22;;;0.10;99.90;;;;;;5101172;28;20408;-64
2023/03/03 08:22:15;;;;;;;124.38;43.58;;;0.10;99.90;;;;;;5102789;28;20410;-64
2023/03/03 08:24:42;;;;;;;129.80;46.30;;;0.00;99.90;;;;;;5095522;28;20474;-64
2023/03/03 08:27:08;;;;;;;134.68;45.80;;;0.10;99.90;;;;;;5101510;28;20413;-62
2023/03/03 08:29:35;;;;;;;133.18;44.83;;;0.10;99.90;;;;;;5101353;28;20419;-62
2023/03/03 08:32:02;;;;;;;134.63;46.55;;;0.10;99.90;;;;;;5100535;28;20793;-62
2023/03/03 08:34:29;;;;;;;140.73;47.20;;;0.10;99.90;;;;;;5098776;28;20467;-62
2023/03/03 08:36:57;;;;;;;138.52;47.85;;;0.20;99.90;;;;;;5100529;28;20416;-62
2023/03/03 08:39:25;;;;;;;124.53;47.00;;;0.30;99.90;;;;;;5101202;28;20409;-62
2023/03/03 08:41:52;;;;;;;122.07;44.03;;;0.30;99.90;;;;;;5090535;28;20423;-62
2023/03/03 08:44:19;;;;;;;117.18;45.13;;;0.30;99.90;;;;;;5104076;28;20408;-62
2023/03/03 08:46:46;;;;;;;125.20;45.85;;;0.20;99.90;;;;;;5098579;28;20876;-63
2023/03/03 08:49:12;;;;;;;120.63;44.97;;;0.20;99.90;;;;;;5102582;28;20465;-63
2023/03/03 08:51:39;;;;;;;119.43;43.78;;;0.30;99.90;;;;;;5102234;28;20421;-63
2023/03/03 08:54:06;;;;;;;117.93;43.03;;;0.30;99.90;;;;;;5102920;28;20505;-63
2023/03/03 08:56:35;;;;;;;129.20;44.78;;;0.30;99.90;;;;;;5103009;28;20417;-63
2023/03/03 08:59:02;;;;;;;132.63;49.75;;;0.40;99.90;;;;;;5105094;28;20457;-63
2023/03/03 09:01:29;;;;;;;135.32;49.85;;;0.40;99.90;;;;;;5103737;28;20734;-63
2023/03/03 09:03:55;;;;;;;127.05;48.45;;;0.50;99.90;;;;;;5102388;28;20409;-63
2023/03/03 09:06:22;;;;;;;125.53;47.38;;;0.60;99.90;;;;;;5102166;28;20424;-63
2023/03/03 09:08:49;;;;;;;127.80;48.90;;;0.70;99.90;;;;;;5103229;28;20462;-62
2023/03/03 09:11:23;;;;;;;127.10;46.27;;;0.80;99.90;;;;;;5105363;28;20415;-62
2023/03/03 09:13:54;;;;;;;132.43;47.17;;;0.70;99.90;;;;;;5104598;28;20956;-63
2023/03/03 09:16:21;;;;;;;123.63;45.53;;;0.80;99.90;;;;;;5106047;28;20947;-64
2023/03/03 09:18:48;;;;;;;117.05;43.22;;;0.80;99.90;;;;;;5102742;28;20488;-62
2023/03/03 09:21:23;;;;;;;103.10;39.13;;;0.70;99.90;;;;;;5104040;28;20828;-64
2023/03/03 09:23:54;;;;;;;106.28;38.58;;;0.70;99.90;;;;;;5102237;28;20401;-63
2023/03/03 09:26:30;;;;;;;88.05;34.10;;;0.70;99.90;;;;;;5107755;28;20408;-63
2023/03/03 09:29:15;;;;;;;98.60;36.03;;;0.60;99.90;;;;;;5104840;28;20412;-63
2023/03/03 09:31:44;;;;;;;100.45;36.30;;;0.60;99.90;;;;;;5098580;28;20405;-63
2023/03/03 09:34:20;;;;;;;94.68;36.22;;;0.90;99.90;;;;;;5105960;28;20416;-63
2023/03/03 09:36:48;;;;;;;96.27;37.57;;;0.90;99.90;;;;;;5100189;28;20458;-64
2023/03/03 09:39:18;;;;;;;102.38;37.78;;;0.90;99.90;;;;;;5101715;28;20408;-64
2023/03/03 09:42:25;;;;;;;109.70;40.00;;;0.90;99.90;;;;;;5102437;28;20429;-63
2023/03/03 09:45:16;;;;;;;110.45;40.65;;;0.90;99.90;;;;;;5097563;28;20807;-64
2023/03/03 09:47:55;;;;;;;108.93;39.63;;;1.00;99.90;;;;;;5098735;28;20484;-63
2023/03/03 09:50:30;;;;;;;107.88;39.67;;;0.90;99.90;;;;;;5108177;28;20406;-64
2023/03/03 09:53:13;;;;;;;95.60;37.72;;;1.00;99.90;;;;;;5114412;28;20484;-64
2023/03/03 09:55:47;;;;;;;95.45;36.38;;;1.00;99.90;;;;;;5102542;28;20414;-64
2023/03/03 09:58:32;;;;;;;93.10;36.88;;;1.20;99.90;;;;;;5109181;27;20534;-64
2023/03/03 10:01:11;;;;;;;94.15;36.03;;;1.30;99.90;;;;;;5102400;28;20789;-64
2023/03/03 10:04:14;;;;;;;79.82;32.63;;;1.30;99.90;;;;;;5101785;28;20396;-64
2023/03/03 10:06:45;;;;;;;93.93;36.25;;;1.40;99.90;;;;;;5060847;28;20903;-62
2023/03/03 10:09:46;;;;;;;97.82;35.42;;;1.30;99.90;;;;;;5101566;28;20496;-62
2023/03/03 10:12:18;;;;;;;88.40;33.20;;;1.50;99.90;;;;;;5101077;28;20415;-63
2023/03/03 10:15:03;;;;;;;89.43;34.33;;;1.50;99.90;;;;;;5101634;28;20801;-63
2023/03/03 10:17:43;;;;;;;98.13;36.60;;;1.50;99.90;;;;;;5095547;28;20520;-63
2023/03/03 10:20:26;;;;;;;94.75;36.13;;;1.40;99.90;;;;;;5100831;28;20826;-63
2023/03/03 10:22:55;;;;;;;82.30;32.70;;;1.50;99.90;;;;;;5109984;28;20788;-62
2023/03/03 10:25:31;;;;;;;81.78;31.65;;;1.60;99.90;;;;;;5110973;28;20493;-63
2023/03/03 10:28:07;;;;;;;74.68;29.75;;;1.60;99.90;;;;;;5094144;28;20861;-63
2023/03/03 10:30:43;;;;;;;69.65;28.48;;;1.30;99.90;;;;;;5110982;28;20476;-63
2023/03/03 10:33:18;;;;;;;63.20;27.00;;;1.20;99.90;;;;;;5103414;28;20431;-63
2023/03/03 10:36:29;;;;;;;63.63;26.65;;;1.30;99.90;;;;;;5102569;28;20418;-63
2023/03/03 10:39:11;;;;;;;66.70;27.63;;;1.40;99.90;;;;;;5057609;28;21047;-63
2023/03/03 10:41:58;;;;;;;65.32;27.38;;;1.40;99.90;;;;;;5099155;28;20413;-60
2023/03/03 10:44:39;;;;;;;69.07;29.30;;;1.40;99.90;;;;;;5096464;28;20825;-65
2023/03/03 10:47:35;;;;;;;75.35;30.63;;;1.30;99.90;;;;;;5100533;28;20419;-65
2023/03/03 10:50:16;;;;;;;68.72;25.83;;;1.20;99.90;;;;;;5102567;28;20828;-66
2023/03/03 10:52:49;;;;;;;69.25;27.98;;;1.20;99.90;;;;;;5101940;28;20477;-58
2023/03/03 10:55:38;;;;;;;72.57;31.10;;;1.10;99.90;;;;;;5100113;28;20539;-60
2023/03/03 10:58:35;;;;;;;68.30;29.08;;;1.30;99.90;;;;;;5091550;28;20913;-60
2023/03/03 11:01:11;;;;;;;63.33;28.07;;;1.40;99.90;;;;;;5099800;28;20417;-58
2023/03/03 11:04:02;;;;;;;63.55;27.48;;;1.60;99.90;;;;;;5100038;28;20907;-63
2023/03/03 11:06:39;;;;;;;58.17;26.33;;;1.60;99.90;;;;;;5097403;28;20513;-60
2023/03/03 11:09:17;;;;;;;61.22;25.80;;;1.70;99.90;;;;;;5096060;28;20750;-59
2023/03/03 11:11:52;;;;;;;46.20;20.33;;;1.60;99.90;;;;;;5099529;28;20591;-60
2023/03/03 11:14:28;;;;;;;61.70;26.60;;;1.50;99.90;;;;;;5099738;28;20472;-60
2023/03/03 11:17:04;;;;;;;63.47;26.70;;;1.50;99.90;;;;;;5097513;28;20410;-61
2023/03/03 11:19:43;;;;;;;56.78;25.95;;;1.50;99.90;;;;;;5099614;28;20414;-59
2023/03/03 11:22:24;;;;;;;61.00;24.08;;;1.50;99.90;;;;;;5099830;28;20418;-61
2023/03/03 11:25:02;;;;;;;59.33;27.52;;;1.60;99.30;;;;;;5100265;28;20402;-59
2023/03/03 11:27:59;;;;;;;61.58;26.52;;;1.70;99.90;;;;;;5100161;28;20432;-61
2023/03/03 11:30:40;;;;;;;63.07;27.53;;;2.00;99.90;;;;;;5089460;28;20417;-61
2023/03/03 11:33:12;;;;;;;58.60;25.77;;;2.10;94.30;;;;;;5098649;28;20823;-61
2023/03/03 11:35:45;;;;;;;67.97;28.35;;;1.80;77.60;;;;;;5101837;28;20410;-61
2023/03/03 11:38:36;;;;;;;63.13;27.45;;;1.80;96.50;;;;;;5091037;28;20414;-61
2023/03/03 11:41:08;;;;;;;64.07;28.05;;;2.00;92.60;;;;;;5101838;28;20408;-60
2023/03/03 11:43:40;;;;;;;62.00;27.27;;;1.80;86.30;;;;;;5095744;28;20410;-62
2023/03/03 11:46:11;;;;;;;62.03;26.40;;;1.90;96.70;;;;;;5099985;28;20416;-61
2023/03/03 11:48:45;;;;;;;58.67;24.80;;;2.10;93.70;;;;;;5097476;28;20819;-61
2023/03/03 11:51:17;;;;;;;65.63;27.60;;;2.00;64.80;;;;;;5095671;28;20412;-61
2023/03/03 11:53:57;;;;;;;68.60;27.20;;;2.00;86.50;;;;;;5100070;28;20422;-61
2023/03/03 11:56:29;;;;;;;58.40;25.48;;;2.20;90.20;;;;;;5089651;28;20842;-61
2023/03/03 11:59:09;;;;;;;56.93;25.23;;;2.30;74.70;;;;;;5099952;28;20417;-58
2023/03/03 12:01:41;;;;;;;55.55;24.55;;;2.30;62.20;;;;;;5098987;28;20410;-58
2023/03/03 12:04:13;;;;;;;53.38;24.25;;;2.20;62.80;;;;;;5100093;28;20870;-60
2023/03/03 12:07:07;;;;;;;57.40;25.50;;;2.20;66.50;;;;;;5102453;28;20533;-59
2023/03/03 12:09:47;;;;;;;56.95;24.80;;;2.20;59.70;;;;;;5098950;28;20404;-60
2023/03/03 12:12:16;;;;;;;62.95;28.27;;;2.30;68.80;;;;;;5098004;28;20409;-61
2023/03/03 12:14:59;;;;;;;64.85;29.10;;;2.20;70.20;;;;;;5099633;28;20475;-62
2023/03/03 12:17:53;;;;;;;64.78;27.48;;;2.20;61.90;;;;;;5102957;28;20487;-60
2023/03/03 12:20:29;;;;;;;64.47;28.75;;;2.40;50.90;;;;;;5085810;28;20421;-62
2023/03/03 12:23:06;;;;;;;68.47;29.37;;;2.40;44.20;;;;;;5099513;28;20422;-61
2023/03/03 12:25:38;;;;;;;62.58;28.65;;;2.50;54.30;;;;;;5102061;28;20973;-60
2023/03/03 12:28:10;;;;;;;57.50;25.40;;;2.40;45.30;;;;;;5107451;28;20437;-61
2023/03/03 12:31:12;;;;;;;62.60;27.98;;;2.30;37.30;;;;;;5103423;28;20432;-59
2023/03/03 12:33:51;;;;;;;65.57;30.08;;;2.30;47.80;;;;;;5103791;28;20420;-62
2023/03/03 12:36:33;;;;;;;63.33;30.50;;;2.40;52.70;;;;;;5102407;28;20487;-60
2023/03/03 12:39:07;;;;;;;67.13;30.77;;;2.60;49.20;;;;;;5103362;28;20400;-62
2023/03/03 12:41:44;;;;;;;73.40;32.72;;;2.50;38.40;;;;;;5099876;28;20409;-60
2023/03/03 12:44:17;;;;;;;64.70;29.65;;;2.70;30.60;;;;;;5103178;28;20429;-60
2023/03/03 12:46:50;;;;;;;69.35;32.80;;;2.70;17.90;;;;;;5103946;28;20406;-62
2023/03/03 12:49:16;;;;;;;62.80;29.40;;;2.60;30.70;;;;;;5098357;28;20412;-65